Terminal Aerodrome Forecast
Issued by NWS

Home | Current Version | Previous Version | Text Only | Print | Product List | Glossary Off
Versions: 1 2 3 4 5 6 7 8 9 10 11 12 13 14 15 16 17 18 19

000
FTUS43 KMPX 231100 RRA
TAFAXN
TAF
KAXN 231141Z 2312/2412 03012KT 4SM BR OVC003
     FM231600 36014KT 3SM -SN BR OVC004
     FM232300 34013KT 4SM BR OVC005=

USA.gov is the U.S. government's official web portal to all federal, state and local government web resources and services.